createdAt,value
2023-05-05T00:00:23.688Z,1537.00
2023-05-05T00:01:23.734Z,1520.00
2023-05-05T00:02:23.832Z,1523.00
2023-05-05T00:03:24.042Z,1530.00
2023-05-05T00:04:23.955Z,1524.00
2023-05-05T00:05:23.987Z,1525.00
2023-05-05T00:06:24.043Z,1539.00
2023-05-05T00:07:24.119Z,1530.00
2023-05-05T00:08:24.178Z,1524.00
2023-05-05T00:09:24.258Z,1531.00
2023-05-05T00:10:24.306Z,1515.00
2023-05-05T00:11:24.359Z,1517.00
2023-05-05T00:12:24.435Z,1516.00
2023-05-05T00:13:24.486Z,1527.00
2023-05-05T00:14:24.542Z,1514.00
2023-05-05T00:15:24.604Z,1503.00
2023-05-05T00:16:24.703Z,1508.00
2023-05-05T00:17:24.774Z,1520.00
2023-05-05T00:18:24.829Z,1507.00
2023-05-05T00:19:24.917Z,1507.00
2023-05-05T00:20:24.943Z,1507.00
2023-05-05T00:21:25.006Z,1490.00
2023-05-05T00:22:25.097Z,1493.00
2023-05-05T00:23:25.218Z,1487.00
2023-05-05T00:24:25.239Z,1480.00
2023-05-05T00:25:25.289Z,1491.00
2023-05-05T00:26:25.379Z,1500.00
2023-05-05T00:27:25.444Z,1493.00
2023-05-05T00:28:25.522Z,1490.00
2023-05-05T00:29:25.585Z,1507.00
2023-05-05T00:30:25.667Z,1495.00
2023-05-05T00:31:25.751Z,1495.00
2023-05-05T00:32:25.827Z,1496.00
2023-05-05T00:33:25.873Z,1486.00
2023-05-05T00:34:25.945Z,1490.00
2023-05-05T00:35:25.990Z,1487.00
2023-05-05T00:36:26.077Z,1490.00
2023-05-05T00:37:26.139Z,1482.00
2023-05-05T00:38:26.202Z,1488.00
2023-05-05T00:39:26.284Z,1492.00
2023-05-05T00:40:26.349Z,1478.00
2023-05-05T00:41:26.388Z,1485.00
2023-05-05T00:42:26.466Z,1482.00
2023-05-05T00:43:26.529Z,1481.00
2023-05-05T00:44:26.623Z,1479.00
2023-05-05T00:45:26.670Z,1479.00
2023-05-05T00:46:26.798Z,1487.00
2023-05-05T00:47:26.864Z,1471.00
2023-05-05T00:48:26.863Z,1478.00
2023-05-05T00:49:26.975Z,1473.00
2023-05-05T00:50:27.021Z,1482.00
2023-05-05T00:51:27.085Z,1461.00
2023-05-05T00:52:27.160Z,1466.00
2023-05-05T00:53:27.222Z,1476.00
2023-05-05T00:54:27.292Z,1471.00
2023-05-05T00:55:27.350Z,1461.00
2023-05-05T00:56:27.486Z,1466.00
2023-05-05T00:57:27.512Z,1467.00
2023-05-05T00:58:27.521Z,1455.00
2023-05-05T00:59:27.605Z,1452.00
2023-05-05T01:00:27.677Z,1442.00
2023-05-05T01:01:27.800Z,1446.00
2023-05-05T01:02:27.837Z,1439.00
2023-05-05T01:03:27.973Z,1437.00
2023-05-05T01:04:27.937Z,1438.00
2023-05-05T01:05:28.004Z,1428.00
2023-05-05T01:06:28.072Z,1424.00
2023-05-05T01:07:28.117Z,1427.00
2023-05-05T01:08:28.175Z,1421.00
2023-05-05T01:09:28.253Z,1428.00
2023-05-05T01:10:28.323Z,1419.00
2023-05-05T01:11:28.375Z,1423.00
2023-05-05T01:12:28.465Z,1422.00
2023-05-05T01:13:28.538Z,1421.00
2023-05-05T01:14:28.581Z,1415.00
2023-05-05T01:15:28.707Z,1417.00
2023-05-05T01:16:28.769Z,1410.00
2023-05-05T01:17:28.807Z,1411.00
2023-05-05T01:18:28.852Z,1405.00
2023-05-05T01:19:28.913Z,1411.00
2023-05-05T01:20:28.964Z,1399.00
2023-05-05T01:21:29.042Z,1396.00
2023-05-05T01:22:29.104Z,1406.00
2023-05-05T01:23:29.163Z,1394.00
2023-05-05T01:24:29.214Z,1413.00
2023-05-05T01:25:29.287Z,1405.00
2023-05-05T01:26:29.343Z,1386.00
2023-05-05T01:27:29.348Z,1387.00
2023-05-05T01:28:29.361Z,1388.00
2023-05-05T01:29:29.344Z,1388.00
2023-05-05T01:30:29.327Z,1391.00
2023-05-05T01:31:29.348Z,1392.00
2023-05-05T01:32:29.397Z,1390.00
2023-05-05T01:33:29.328Z,1385.00
2023-05-05T01:34:29.338Z,1376.00
2023-05-05T01:35:29.364Z,1369.00
2023-05-05T01:36:29.340Z,1369.00
2023-05-05T01:37:29.402Z,1372.00
2023-05-05T01:38:29.462Z,1364.00
2023-05-05T01:39:29.527Z,1366.00
2023-05-05T01:40:29.578Z,1362.00
2023-05-05T01:41:29.670Z,1354.00
2023-05-05T01:42:29.639Z,1355.00
2023-05-05T01:43:29.638Z,1357.00
2023-05-05T01:44:29.660Z,1358.00
2023-05-05T01:45:29.664Z,1358.00
2023-05-05T01:46:29.642Z,1355.00
2023-05-05T01:47:29.698Z,1358.00
2023-05-05T01:48:29.651Z,1358.00
2023-05-05T01:49:29.661Z,1361.00
2023-05-05T01:50:29.675Z,1354.00
2023-05-05T01:51:29.716Z,1355.00
2023-05-05T01:52:29.660Z,1355.00
2023-05-05T01:53:29.670Z,1354.00
2023-05-05T01:54:29.647Z,1356.00
2023-05-05T01:55:29.669Z,1355.00
2023-05-05T01:56:29.667Z,1356.00
2023-05-05T01:57:29.661Z,1359.00
2023-05-05T01:58:29.659Z,1372.00
2023-05-05T01:59:29.660Z,1367.00
2023-05-05T02:00:29.659Z,1360.00
2023-05-05T02:01:29.705Z,1356.00
2023-05-05T02:02:29.714Z,1352.00
2023-05-05T02:03:29.688Z,1354.00
2023-05-05T02:04:29.701Z,1350.00
2023-05-05T02:05:29.759Z,1348.00
2023-05-05T02:06:29.818Z,1347.00
2023-05-05T02:07:29.879Z,1341.00
2023-05-05T02:08:29.958Z,1336.00
2023-05-05T02:09:30.022Z,1338.00
2023-05-05T02:10:30.088Z,1324.00
2023-05-05T02:11:30.168Z,1328.00
2023-05-05T02:12:30.248Z,1336.00
2023-05-05T02:13:30.328Z,1336.00
2023-05-05T02:14:30.380Z,1337.00
2023-05-05T02:15:30.493Z,1336.00
2023-05-05T02:16:30.505Z,1326.00
2023-05-05T02:17:30.622Z,1332.00
2023-05-05T02:18:30.660Z,1317.00
2023-05-05T02:19:30.717Z,1321.00
2023-05-05T02:20:30.790Z,1313.00
2023-05-05T02:21:30.862Z,1314.00
2023-05-05T02:22:30.932Z,1326.00
2023-05-05T02:23:31.019Z,1311.00
2023-05-05T02:24:31.031Z,1300.00
2023-05-05T02:25:31.107Z,1303.00
2023-05-05T02:26:31.171Z,1299.00
2023-05-05T02:27:31.288Z,1314.00
2023-05-05T02:28:31.332Z,1292.00
2023-05-05T02:29:31.383Z,1284.00
2023-05-05T02:30:31.433Z,1297.00
2023-05-05T02:31:31.557Z,1269.00
2023-05-05T02:32:31.751Z,1287.00
2023-05-05T02:33:31.634Z,1290.00
2023-05-05T02:34:31.728Z,1290.00
2023-05-05T02:35:31.677Z,1290.00
2023-05-05T02:36:31.636Z,1291.00
2023-05-05T02:37:31.729Z,1287.00
2023-05-05T02:38:31.705Z,1290.00
2023-05-05T02:39:31.699Z,1284.00
2023-05-05T02:40:31.722Z,1275.00
2023-05-05T02:41:31.638Z,1280.00
2023-05-05T02:42:31.607Z,1275.00
2023-05-05T02:43:31.609Z,1277.00
2023-05-05T02:44:31.612Z,1263.00
2023-05-05T02:45:31.623Z,1257.00
2023-05-05T02:46:31.650Z,1263.00
2023-05-05T02:47:31.740Z,1260.00
2023-05-05T02:48:31.821Z,1259.00
2023-05-05T02:49:31.814Z,1260.00
2023-05-05T02:50:31.859Z,1261.00
2023-05-05T02:51:31.739Z,1263.00
2023-05-05T02:52:31.853Z,1263.00
2023-05-05T02:53:31.802Z,1265.00
2023-05-05T02:54:31.752Z,1267.00
2023-05-05T02:55:31.727Z,1269.00
2023-05-05T02:56:32.693Z,1258.00
2023-05-05T02:57:31.736Z,1254.00
2023-05-05T02:58:31.878Z,1239.00
2023-05-05T02:59:31.884Z,1237.00
2023-05-05T03:00:31.933Z,1233.00
2023-05-05T03:01:32.034Z,1234.00
2023-05-05T03:02:32.126Z,1238.00
2023-05-05T03:03:32.131Z,1231.00
2023-05-05T03:04:32.096Z,1227.00
2023-05-05T03:05:32.163Z,1226.00
2023-05-05T03:06:32.237Z,1232.00
2023-05-05T03:07:32.315Z,1235.00
2023-05-05T03:08:32.407Z,1237.00
2023-05-05T03:09:32.390Z,1238.00
2023-05-05T03:10:32.399Z,1237.00
2023-05-05T03:11:32.384Z,1230.00
2023-05-05T03:12:32.397Z,1240.00
2023-05-05T03:13:32.390Z,1223.00
2023-05-05T03:14:33.525Z,1235.00
2023-05-05T03:15:32.401Z,1235.00
2023-05-05T03:16:32.445Z,1236.00
2023-05-05T03:17:32.469Z,1235.00
2023-05-05T03:18:32.390Z,1237.00
2023-05-05T03:19:32.397Z,1238.00
2023-05-05T03:20:32.406Z,1237.00
2023-05-05T03:21:32.399Z,1233.00
2023-05-05T03:22:32.365Z,1243.00
2023-05-05T03:23:32.377Z,1238.00
2023-05-05T03:24:32.362Z,1236.00
2023-05-05T03:25:32.368Z,1226.00
2023-05-05T03:26:32.413Z,1217.00
2023-05-05T03:27:32.463Z,1226.00
2023-05-05T03:28:32.537Z,1204.00
2023-05-05T03:29:32.605Z,1225.00
2023-05-05T03:30:32.648Z,1210.00
2023-05-05T03:31:32.762Z,1213.00
2023-05-05T03:32:32.794Z,1216.00
2023-05-05T03:33:33.198Z,1222.00
2023-05-05T03:34:32.897Z,1222.00
2023-05-05T03:35:33.000Z,1226.00
2023-05-05T03:36:33.080Z,1203.00
2023-05-05T03:37:33.142Z,1211.00
2023-05-05T03:38:33.198Z,1206.00
2023-05-05T03:39:33.202Z,1208.00
2023-05-05T03:40:43.640Z,1195.00
2023-05-05T03:41:34.237Z,1196.00
2023-05-05T03:42:33.249Z,1197.00
2023-05-05T03:43:33.270Z,1203.00
2023-05-05T03:44:33.298Z,1207.00
2023-05-05T03:45:33.286Z,1218.00
2023-05-05T03:46:33.219Z,1218.00
2023-05-05T03:47:33.268Z,1220.00
2023-05-05T03:48:33.732Z,1204.00
2023-05-05T03:49:33.221Z,1200.00
2023-05-05T03:50:33.194Z,1202.00
2023-05-05T03:51:33.259Z,1214.00
2023-05-05T03:52:33.315Z,1205.00
2023-05-05T03:53:33.350Z,1200.00
2023-05-05T03:54:33.412Z,1198.00
2023-05-05T03:55:33.439Z,1197.00
2023-05-05T03:56:33.436Z,1199.00
2023-05-05T03:57:33.458Z,1200.00
2023-05-05T03:58:33.485Z,1195.00
2023-05-05T03:59:33.546Z,1189.00
2023-05-05T04:00:33.630Z,1196.00
2023-05-05T04:01:33.653Z,1195.00
2023-05-05T04:02:33.768Z,1192.00
2023-05-05T04:03:33.854Z,1191.00
2023-05-05T04:04:33.859Z,1189.00
2023-05-05T04:05:33.907Z,1191.00
2023-05-05T04:06:33.987Z,1185.00
2023-05-05T04:07:33.967Z,1185.00
2023-05-05T04:08:34.040Z,1186.00
2023-05-05T04:09:33.973Z,1187.00
2023-05-05T04:10:33.971Z,1191.00
2023-05-05T04:11:33.950Z,1202.00
2023-05-05T04:12:34.012Z,1200.00
2023-05-05T04:13:33.948Z,1200.00
2023-05-05T04:14:33.952Z,1199.00
2023-05-05T04:15:33.949Z,1192.00
2023-05-05T04:16:33.986Z,1187.00
2023-05-05T04:17:34.075Z,1196.00
2023-05-05T04:18:34.108Z,1183.00
2023-05-05T04:19:34.163Z,1185.00
2023-05-05T04:20:34.231Z,1188.00
2023-05-05T04:21:34.293Z,1200.00
2023-05-05T04:22:34.366Z,1179.00
2023-05-05T04:23:34.450Z,1181.00
2023-05-05T04:24:34.448Z,1182.00
2023-05-05T04:25:34.522Z,1180.00
2023-05-05T04:26:34.549Z,1179.00
2023-05-05T04:27:34.585Z,1180.00
2023-05-05T04:28:34.684Z,1188.00
2023-05-05T04:29:34.694Z,1186.00
2023-05-05T04:30:34.774Z,1191.00
2023-05-05T04:31:34.862Z,1194.00
2023-05-05T04:32:34.878Z,1193.00
2023-05-05T04:33:35.007Z,1183.00
2023-05-05T04:34:35.008Z,1179.00
2023-05-05T04:35:35.095Z,1186.00
2023-05-05T04:36:35.142Z,1179.00
2023-05-05T04:37:35.223Z,1183.00
2023-05-05T04:38:35.309Z,1171.00
2023-05-05T04:39:35.262Z,1172.00
2023-05-05T04:40:35.257Z,1175.00
2023-05-05T04:41:35.262Z,1174.00
2023-05-05T04:42:35.266Z,1170.00
2023-05-05T04:43:35.269Z,1171.00
2023-05-05T04:44:35.265Z,1167.00
2023-05-05T04:45:35.274Z,1166.00
2023-05-05T04:46:35.306Z,1181.00
2023-05-05T04:47:35.293Z,1188.00
2023-05-05T04:48:35.333Z,1175.00
2023-05-05T04:49:35.404Z,1171.00
2023-05-05T04:50:35.480Z,1158.00
2023-05-05T04:51:35.560Z,1173.00
2023-05-05T04:52:35.611Z,1172.00
2023-05-05T04:53:35.685Z,1171.00
2023-05-05T04:54:35.734Z,1148.00
2023-05-05T04:55:35.800Z,1163.00
2023-05-05T04:56:35.862Z,1165.00
2023-05-05T04:57:35.930Z,1165.00
2023-05-05T04:58:36.007Z,1155.00
2023-05-05T04:59:36.082Z,1166.00
2023-05-05T05:00:36.136Z,1158.00
2023-05-05T05:01:38.275Z,1163.00
2023-05-05T05:02:36.273Z,1162.00
2023-05-05T05:03:36.473Z,1161.00
2023-05-05T05:04:36.391Z,1169.00
2023-05-05T05:05:36.464Z,1152.00
2023-05-05T05:06:36.528Z,1150.00
2023-05-05T05:07:36.599Z,1138.00
2023-05-05T05:08:36.674Z,1141.00
2023-05-05T05:09:36.703Z,1146.00
2023-05-05T05:10:36.777Z,1145.00
2023-05-05T05:11:36.841Z,1149.00
2023-05-05T05:12:36.963Z,1154.00
2023-05-05T05:13:36.959Z,1146.00
2023-05-05T05:14:37.023Z,1145.00
2023-05-05T05:15:37.092Z,1148.00
2023-05-05T05:16:37.173Z,1141.00
2023-05-05T05:17:37.207Z,1150.00
2023-05-05T05:18:37.304Z,1158.00
2023-05-05T05:19:37.303Z,1154.00
2023-05-05T05:20:37.382Z,1146.00
2023-05-05T05:21:37.443Z,1156.00
2023-05-05T05:22:37.509Z,1144.00
2023-05-05T05:23:37.592Z,1144.00
2023-05-05T05:24:37.662Z,1147.00
2023-05-05T05:25:37.686Z,1139.00
2023-05-05T05:26:37.731Z,1148.00
2023-05-05T05:27:37.728Z,1148.00
2023-05-05T05:28:37.729Z,1150.00
2023-05-05T05:29:37.723Z,1154.00
2023-05-05T05:30:37.766Z,1160.00
2023-05-05T05:31:37.935Z,1176.00
2023-05-05T05:32:37.738Z,1150.00
2023-05-05T05:33:37.710Z,1156.00
2023-05-05T05:34:37.696Z,1165.00
2023-05-05T05:35:37.702Z,1193.00
2023-05-05T05:36:37.706Z,1249.00
2023-05-05T05:37:37.841Z,1311.00
2023-05-05T05:38:37.778Z,1358.00
2023-05-05T05:39:37.817Z,1446.00
2023-05-05T05:40:38.022Z,1499.00
2023-05-05T05:41:37.919Z,1525.00
2023-05-05T05:42:37.956Z,1598.00
2023-05-05T05:43:38.025Z,1620.00
2023-05-05T05:44:38.054Z,1640.00
2023-05-05T05:45:38.163Z,1731.00
2023-05-05T05:46:38.194Z,1721.00
2023-05-05T05:47:38.190Z,1814.00
2023-05-05T05:48:38.231Z,1898.00
2023-05-05T05:49:38.235Z,1883.00
2023-05-05T05:50:38.264Z,1963.00
2023-05-05T05:51:38.241Z,1964.00
2023-05-05T05:52:38.217Z,1966.00
2023-05-05T05:53:38.213Z,1974.00
2023-05-05T05:54:38.274Z,1954.00
2023-05-05T05:55:38.218Z,1877.00
2023-05-05T05:56:38.228Z,1578.00
2023-05-05T05:57:38.240Z,1535.00
2023-05-05T05:58:38.252Z,1282.00
2023-05-05T05:59:38.333Z,1123.00
2023-05-05T06:00:38.187Z,1162.00
2023-05-05T06:01:38.192Z,1119.00
2023-05-05T06:02:38.316Z,940.00
2023-05-05T06:03:38.273Z,779.00
2023-05-05T06:04:38.236Z,794.00
2023-05-05T06:05:38.168Z,858.00
2023-05-05T06:06:38.149Z,858.00
2023-05-05T06:07:38.199Z,866.00
2023-05-05T06:08:38.139Z,847.00
2023-05-05T06:09:38.145Z,710.00
2023-05-05T06:10:38.754Z,704.00
2023-05-05T06:11:38.272Z,892.00
2023-05-05T06:12:38.304Z,898.00
2023-05-05T06:13:38.247Z,928.00
2023-05-05T06:14:38.277Z,1005.00
2023-05-05T06:15:38.293Z,1133.00
2023-05-05T06:16:38.211Z,1303.00
2023-05-05T06:17:38.227Z,1393.00
2023-05-05T06:18:38.228Z,1396.00
2023-05-05T06:19:38.207Z,1411.00
2023-05-05T06:20:38.190Z,1453.00
2023-05-05T06:21:38.229Z,1545.00
2023-05-05T06:22:38.224Z,1656.00
2023-05-05T06:23:38.157Z,1765.00
2023-05-05T06:24:38.129Z,1796.00
2023-05-05T06:25:38.134Z,1881.00
2023-05-05T06:26:38.146Z,1924.00
2023-05-05T06:27:38.095Z,1958.00
2023-05-05T06:28:38.088Z,1959.00
2023-05-05T06:29:38.060Z,1980.00
2023-05-05T06:30:38.089Z,2014.00
2023-05-05T06:31:38.133Z,2048.00
2023-05-05T06:32:38.015Z,2078.00
2023-05-05T06:33:37.985Z,2115.00
2023-05-05T06:34:38.031Z,2161.00
2023-05-05T06:35:37.945Z,2194.00
2023-05-05T06:36:38.012Z,2207.00
2023-05-05T06:37:38.048Z,2233.00
2023-05-05T06:38:38.271Z,2262.00
2023-05-05T06:39:38.041Z,2284.00
2023-05-05T06:40:38.059Z,2308.00
2023-05-05T06:41:38.081Z,2322.00
2023-05-05T06:42:38.767Z,2359.00
2023-05-05T06:43:38.095Z,2391.00
2023-05-05T06:44:38.087Z,2421.00
2023-05-05T06:45:38.107Z,2452.00
2023-05-05T06:46:38.164Z,2453.00
2023-05-05T06:47:38.240Z,2454.00
2023-05-05T06:48:38.210Z,2455.00
2023-05-05T06:49:38.321Z,2456.00
2023-05-05T06:50:38.233Z,2484.00
2023-05-05T06:51:38.549Z,2497.00
2023-05-05T06:52:38.250Z,2497.00
2023-05-05T06:53:38.439Z,2513.00
2023-05-05T06:54:38.496Z,2517.00
2023-05-05T06:55:38.335Z,2512.00
2023-05-05T06:56:38.360Z,2511.00
2023-05-05T06:57:38.324Z,2503.00
2023-05-05T06:58:38.397Z,2505.00
2023-05-05T06:59:38.346Z,2502.00
2023-05-05T07:00:38.392Z,2492.00
2023-05-05T07:01:38.416Z,2462.00
2023-05-05T07:02:38.599Z,2449.00
2023-05-05T07:03:38.476Z,2433.00
2023-05-05T07:04:38.473Z,2412.00
2023-05-05T07:05:38.575Z,2396.00
2023-05-05T07:06:38.501Z,2414.00
2023-05-05T07:07:38.627Z,2380.00
2023-05-05T07:08:38.591Z,2381.00
2023-05-05T07:09:38.611Z,2377.00
2023-05-05T07:10:38.656Z,2362.00
2023-05-05T07:11:38.724Z,2351.00
2023-05-05T07:12:38.744Z,2351.00
2023-05-05T07:13:38.744Z,2326.00
2023-05-05T07:14:39.002Z,2294.00
2023-05-05T07:15:38.667Z,2264.00
2023-05-05T07:16:38.724Z,2240.00
2023-05-05T07:17:38.692Z,2214.00
2023-05-05T07:18:38.635Z,2194.00
2023-05-05T07:19:38.649Z,2180.00
2023-05-05T07:20:38.609Z,2193.00
2023-05-05T07:21:38.642Z,2196.00
2023-05-05T07:22:38.647Z,2178.00
2023-05-05T07:23:38.718Z,2195.00
2023-05-05T07:24:38.744Z,2185.00
2023-05-05T07:25:38.835Z,2173.00
2023-05-05T07:26:38.855Z,2223.00
2023-05-05T07:27:38.903Z,2224.00
2023-05-05T07:28:38.997Z,2232.00
2023-05-05T07:29:39.045Z,2271.00
2023-05-05T07:30:39.108Z,2270.00
2023-05-05T07:31:39.199Z,2260.00
2023-05-05T07:32:39.283Z,2205.00
2023-05-05T07:33:39.313Z,2192.00
2023-05-05T07:34:39.339Z,2172.00
2023-05-05T07:35:39.566Z,2153.00
2023-05-05T07:36:39.446Z,2123.00
2023-05-05T07:37:39.678Z,2168.00
2023-05-05T07:38:39.575Z,2010.00
2023-05-05T07:39:39.635Z,1733.00
2023-05-05T07:40:39.656Z,1708.00
2023-05-05T07:41:39.728Z,1522.00
2023-05-05T07:42:39.744Z,1142.00
2023-05-05T07:43:40.532Z,792.00
2023-05-05T07:44:39.831Z,494.00
2023-05-05T07:45:39.955Z,457.00
2023-05-05T07:46:39.894Z,400.00
2023-05-05T07:47:39.986Z,400.00
2023-05-05T07:48:40.018Z,496.00
2023-05-05T07:50:59.112Z,500.00
2023-05-05T07:51:59.129Z,500.00
2023-05-05T07:53:10.929Z,500.00
2023-05-05T07:54:00.123Z,500.00
2023-05-05T07:54:59.101Z,500.00
2023-05-05T07:55:59.113Z,500.00
2023-05-05T07:56:59.113Z,500.00
2023-05-05T07:57:59.113Z,500.00
2023-05-05T07:58:59.171Z,606.00
2023-05-05T07:59:59.137Z,455.00
2023-05-05T08:00:59.117Z,482.00
2023-05-05T08:01:59.173Z,510.00
2023-05-05T08:02:59.182Z,449.00
2023-05-05T08:03:59.324Z,400.00
2023-05-05T08:04:59.807Z,458.00
2023-05-05T08:05:59.168Z,469.00
2023-05-05T08:06:59.128Z,477.00
2023-05-05T08:07:59.141Z,490.00
2023-05-05T08:08:59.282Z,480.00
2023-05-05T08:09:59.115Z,488.00
2023-05-05T08:10:59.122Z,525.00
2023-05-05T08:11:59.127Z,545.00
2023-05-05T08:12:59.185Z,502.00
2023-05-05T08:13:59.145Z,494.00
2023-05-05T08:14:59.179Z,502.00
2023-05-05T08:15:59.241Z,497.00
2023-05-05T08:16:59.280Z,500.00
2023-05-05T08:17:59.400Z,501.00
2023-05-05T08:18:59.330Z,477.00
2023-05-05T08:19:59.333Z,462.00
2023-05-05T08:20:59.358Z,448.00
2023-05-05T08:22:01.075Z,443.00
2023-05-05T08:22:59.365Z,439.00
2023-05-05T08:23:59.371Z,442.00
2023-05-05T08:24:59.416Z,452.00
2023-05-05T08:25:59.536Z,435.00
2023-05-05T08:26:59.380Z,426.00
2023-05-05T08:27:59.366Z,436.00
2023-05-05T08:28:59.410Z,518.00
2023-05-05T08:29:59.395Z,548.00
2023-05-05T08:30:59.470Z,576.00
2023-05-05T08:31:59.462Z,644.00
2023-05-05T08:32:59.624Z,577.00
2023-05-05T08:33:59.564Z,639.00
2023-05-05T08:34:59.600Z,733.00
2023-05-05T08:35:59.624Z,661.00
2023-05-05T08:36:59.638Z,1043.00
2023-05-05T08:37:59.660Z,787.00
2023-05-05T08:38:59.676Z,962.00
2023-05-05T08:39:59.776Z,1147.00
2023-05-05T08:40:59.829Z,1022.00
2023-05-05T08:41:59.729Z,886.00
2023-05-05T08:42:59.757Z,699.00
2023-05-05T08:43:59.833Z,720.00
2023-05-05T08:44:59.826Z,872.00
2023-05-05T08:45:59.882Z,1076.00
2023-05-05T08:46:59.939Z,1145.00
2023-05-05T08:47:59.956Z,887.00
2023-05-05T08:48:59.955Z,747.00
2023-05-05T08:49:59.927Z,719.00
2023-05-05T08:51:01.336Z,785.00
2023-05-05T08:51:59.931Z,673.00
2023-05-05T08:52:59.986Z,1057.00
2023-05-05T08:54:00.227Z,1164.00
2023-05-05T08:54:59.992Z,1228.00
2023-05-05T08:55:59.972Z,1401.00
2023-05-05T08:56:59.967Z,1817.00
2023-05-05T08:58:00.214Z,1906.00
2023-05-05T08:59:00.008Z,1844.00
2023-05-05T08:59:59.977Z,2000.00
2023-05-05T09:01:00.093Z,1749.00
2023-05-05T09:02:00.044Z,1456.00
2023-05-05T09:03:00.087Z,1750.00
2023-05-05T09:03:59.967Z,1688.00
2023-05-05T09:05:00.288Z,1852.00
2023-05-05T09:06:00.047Z,2035.00
2023-05-05T09:07:00.167Z,2006.00
2023-05-05T09:08:00.159Z,2311.00
2023-05-05T09:09:00.226Z,2388.00
2023-05-05T09:10:00.344Z,2392.00
2023-05-05T09:11:00.442Z,2396.00
2023-05-05T09:12:00.193Z,2092.00
2023-05-05T09:13:00.325Z,1897.00
2023-05-05T09:14:00.197Z,1821.00
2023-05-05T09:15:00.210Z,1935.00
2023-05-05T09:16:00.164Z,2009.00
2023-05-05T09:17:00.283Z,2011.00
2023-05-05T09:18:00.206Z,1901.00
2023-05-05T09:19:00.215Z,1709.00
2023-05-05T09:20:00.202Z,2013.00
2023-05-05T09:21:00.193Z,1971.00
2023-05-05T09:22:00.169Z,1693.00
2023-05-05T09:23:00.249Z,1661.00
2023-05-05T09:24:07.344Z,1654.00
2023-05-05T09:25:01.151Z,1656.00
2023-05-05T09:26:00.147Z,1658.00
2023-05-05T09:27:00.145Z,1683.00
2023-05-05T09:28:00.137Z,1907.00
2023-05-05T09:29:00.248Z,2311.00
2023-05-05T09:30:00.287Z,2050.00
2023-05-05T09:31:00.173Z,2054.00
2023-05-05T09:32:00.100Z,2057.00
2023-05-05T09:33:00.199Z,1995.00
2023-05-05T09:34:00.128Z,2078.00
2023-05-05T09:35:00.140Z,1925.00
2023-05-05T09:36:00.077Z,1736.00
2023-05-05T09:37:00.073Z,2137.00
2023-05-05T09:38:00.136Z,2500.00
2023-05-05T09:39:00.219Z,2533.00
2023-05-05T09:40:00.193Z,2309.00
2023-05-05T09:41:00.212Z,2312.00
2023-05-05T09:42:00.132Z,2338.00
2023-05-05T09:43:00.198Z,2326.00
2023-05-05T09:44:00.802Z,2496.00
2023-05-05T09:45:00.396Z,2564.00
2023-05-05T09:46:00.126Z,2138.00
2023-05-05T09:47:00.101Z,2030.00
2023-05-05T09:48:00.877Z,1881.00
2023-05-05T09:49:00.067Z,1706.00
2023-05-05T09:50:00.053Z,1791.00
2023-05-05T09:51:00.059Z,2167.00
2023-05-05T09:52:00.162Z,2266.00
2023-05-05T09:53:00.172Z,2472.00
2023-05-05T09:54:00.167Z,2863.00
2023-05-05T09:55:00.233Z,3222.00
2023-05-05T09:56:00.236Z,2840.00
2023-05-05T09:57:00.847Z,2634.00
2023-05-05T09:58:00.289Z,2642.00
2023-05-05T09:59:00.377Z,2669.00
2023-05-05T10:00:00.568Z,2321.00
2023-05-05T10:01:00.483Z,2114.00
2023-05-05T10:02:00.513Z,2021.00
2023-05-05T10:03:00.545Z,2384.00
2023-05-05T10:04:00.562Z,2642.00
2023-05-05T10:05:02.457Z,2956.00
2023-05-05T10:06:00.632Z,3173.00
2023-05-05T10:07:00.660Z,3450.00
2023-05-05T10:08:00.694Z,3598.00
2023-05-05T10:09:00.749Z,3636.00
2023-05-05T10:10:00.780Z,3991.00
2023-05-05T10:11:00.778Z,3954.00
2023-05-05T10:12:00.820Z,4040.00
2023-05-05T10:13:00.810Z,4069.00
2023-05-05T10:14:00.774Z,4173.00
2023-05-05T10:15:00.852Z,3985.00
2023-05-05T10:16:00.818Z,3997.00
2023-05-05T10:17:00.883Z,4090.00
2023-05-05T10:18:07.824Z,4243.00
2023-05-05T10:19:02.215Z,4211.00
2023-05-05T10:20:00.788Z,3998.00
2023-05-05T10:21:00.758Z,4263.00
2023-05-05T10:22:00.775Z,4279.00
2023-05-05T10:23:00.724Z,4394.00
2023-05-05T10:24:00.728Z,4588.00
2023-05-05T10:25:00.688Z,4605.00
2023-05-05T10:26:00.659Z,4717.00
2023-05-05T10:27:00.656Z,4747.00
2023-05-05T10:28:00.634Z,4808.00
2023-05-05T10:29:00.634Z,4795.00
2023-05-05T10:30:00.885Z,4620.00
2023-05-05T10:31:00.602Z,4650.00
2023-05-05T10:32:00.604Z,4752.00
2023-05-05T10:34:00.704Z,4778.00
2023-05-05T10:35:00.513Z,4603.00
2023-05-05T10:36:00.540Z,4793.00
2023-05-05T10:37:00.499Z,4742.00
2023-05-05T10:38:00.457Z,4885.00
2023-05-05T10:39:00.484Z,4944.00
2023-05-05T10:40:00.479Z,4774.00
2023-05-05T10:41:00.391Z,4716.00
2023-05-05T10:42:00.435Z,4629.00
2023-05-05T10:43:00.368Z,4809.00
2023-05-05T10:44:02.889Z,4966.00
2023-05-05T10:45:00.372Z,4944.00
2023-05-05T10:46:00.841Z,4950.00
2023-05-05T10:47:00.292Z,4941.00
2023-05-05T10:48:00.304Z,4918.00
2023-05-05T10:49:00.468Z,4658.00
2023-05-05T10:50:00.334Z,4629.00
2023-05-05T10:51:00.232Z,4625.00
2023-05-05T10:52:00.197Z,4216.00
2023-05-05T10:53:00.185Z,4420.00
2023-05-05T10:54:00.224Z,4576.00
2023-05-05T10:55:00.152Z,4670.00
2023-05-05T10:56:00.170Z,4806.00
2023-05-05T10:57:00.098Z,4854.00
2023-05-05T10:58:00.137Z,4885.00
2023-05-05T10:59:00.959Z,4762.00
2023-05-05T11:00:00.096Z,4738.00
2023-05-05T11:01:00.047Z,4832.00
2023-05-05T11:02:01.862Z,4919.00
2023-05-05T11:03:00.145Z,4978.00
2023-05-05T11:03:59.980Z,5039.00
2023-05-05T11:05:00.015Z,5115.00
2023-05-05T11:05:59.923Z,5155.00
2023-05-05T11:06:59.924Z,5172.00
2023-05-05T11:08:00.009Z,5171.00
2023-05-05T11:08:59.894Z,5180.00
2023-05-05T11:09:59.993Z,5182.00
2023-05-05T11:10:59.868Z,5183.00
2023-05-05T11:11:59.828Z,5193.00
2023-05-05T11:12:59.846Z,5202.00
2023-05-05T11:13:59.804Z,5234.00
2023-05-05T11:14:59.814Z,5266.00
2023-05-05T11:15:59.794Z,5319.00
2023-05-05T11:16:59.767Z,5331.00
2023-05-05T11:17:59.797Z,5330.00
2023-05-05T11:18:59.755Z,5309.00
2023-05-05T11:19:59.817Z,5230.00
2023-05-05T11:20:59.708Z,4960.00
2023-05-05T11:21:59.711Z,4628.00
2023-05-05T11:22:59.685Z,4542.00
2023-05-05T11:23:59.655Z,4491.00
2023-05-05T11:24:59.649Z,4439.00
2023-05-05T11:25:59.618Z,4377.00
2023-05-05T11:26:59.626Z,4385.00
2023-05-05T11:27:59.683Z,4350.00
2023-05-05T11:28:59.589Z,4231.00
2023-05-05T11:29:59.663Z,4263.00
2023-05-05T11:30:59.962Z,4342.00
2023-05-05T11:31:59.785Z,4432.00
2023-05-05T11:32:59.890Z,4497.00
2023-05-05T11:33:59.838Z,4528.00
2023-05-05T11:34:59.898Z,4553.00
2023-05-05T11:35:59.932Z,4579.00
2023-05-05T11:36:59.979Z,4565.00
2023-05-05T11:38:00.034Z,4579.00
2023-05-05T11:39:00.113Z,4591.00
2023-05-05T11:40:00.200Z,4628.00
2023-05-05T11:41:00.180Z,4740.00
2023-05-05T11:42:00.257Z,4719.00
2023-05-05T11:43:00.290Z,4697.00
2023-05-05T11:44:00.351Z,4706.00
2023-05-05T11:45:00.423Z,4685.00
2023-05-05T11:46:00.476Z,4612.00
2023-05-05T11:47:00.526Z,4606.00
2023-05-05T11:48:00.590Z,4638.00
2023-05-05T11:49:00.628Z,4656.00
2023-05-05T11:50:00.680Z,4649.00
2023-05-05T11:51:00.710Z,4645.00
2023-05-05T11:52:00.774Z,4602.00
2023-05-05T11:53:00.785Z,4554.00
2023-05-05T11:54:00.725Z,4514.00
2023-05-05T11:55:00.713Z,4471.00
2023-05-05T11:56:00.688Z,4453.00
2023-05-05T11:57:00.715Z,4408.00
2023-05-05T11:58:00.705Z,4403.00
2023-05-05T11:59:00.693Z,4385.00
2023-05-05T12:00:00.700Z,4338.00
2023-05-05T12:01:00.668Z,4284.00
2023-05-05T12:02:00.665Z,4261.00
2023-05-05T12:03:00.879Z,4233.00
2023-05-05T12:04:00.828Z,4239.00
2023-05-05T12:05:00.733Z,4216.00
2023-05-05T12:06:00.663Z,4183.00
2023-05-05T12:07:00.651Z,4177.00
2023-05-05T12:08:00.645Z,4159.00
2023-05-05T12:09:00.706Z,4142.00
2023-05-05T12:10:00.665Z,4127.00
2023-05-05T12:11:00.609Z,4127.00